Time;durP1;ratioP1;P1;durP2;ratioP2;P2;SDS_P1;SDS_P2;PMS_P1;PMS_P2;Temp;Humidity;BMP_temperature;BMP_pressure;BME280_temperature;BME280_humidity;BME280_pressure;Samples;Min_cycle;Max_cycle;Signal;HPM_P1;HPM_P2
2022/06/15 00:00:35;;;;;;;8.48;5.40;;;;;;;;;;5064361;28;20033;-73
2022/06/15 00:03:01;;;;;;;12.45;6.22;;;;;;;;;;5071035;28;20059;-73
2022/06/15 00:05:28;;;;;;;6.10;4.65;;;13.60;99.90;;;;;;5051677;28;20048;-73
2022/06/15 00:07:54;;;;;;;8.63;6.50;;;;;;;;;;5050233;28;20040;-73
2022/06/15 00:10:21;;;;;;;10.18;5.75;;;;;;;;;;5067889;28;20094;-73
2022/06/15 00:12:47;;;;;;;9.18;6.13;;;;;;;;;;5067513;28;20475;-73
2022/06/15 00:15:13;;;;;;;14.50;6.68;;;;;;;;;;5064698;28;20516;-73
2022/06/15 00:17:39;;;;;;;11.18;6.00;;;;;;;;;;5072831;28;20154;-73
2022/06/15 00:20:05;;;;;;;10.57;5.65;;;;;;;;;;5074388;28;20051;-73
2022/06/15 00:22:32;;;;;;;11.25;6.60;;;;;;;;;;5069122;28;20032;-74
2022/06/15 00:24:57;;;;;;;12.65;6.85;;;;;;;;;;5067646;28;20553;-73
2022/06/15 00:27:23;;;;;;;11.43;6.35;;;;;;;;;;5074197;28;20052;-74
2022/06/15 00:29:49;;;;;;;10.45;6.50;;;;;;;;;;5073134;28;20087;-73
2022/06/15 00:32:15;;;;;;;9.15;6.47;;;;;;;;;;5051049;28;20029;-73
2022/06/15 00:34:41;;;;;;;12.30;6.55;;;;;;;;;;5073990;28;20476;-73
2022/06/15 00:37:07;;;;;;;14.27;6.80;;;;;;;;;;5056217;28;20106;-73
2022/06/15 00:39:34;;;;;;;14.07;7.60;;;;;;;;;;5069515;28;20468;-73
2022/06/15 00:42:00;;;;;;;7.70;5.65;;;;;;;;;;5070855;28;20676;-73
2022/06/15 00:44:39;;;;;;;10.32;6.68;;;;;;;;;;5061732;28;20120;-73
2022/06/15 00:47:22;;;;;;;9.45;7.18;;;;;;;;;;5073256;28;20395;-74
2022/06/15 00:49:52;;;;;;;10.23;6.10;;;;;;;;;;5071862;28;20115;-73
2022/06/15 00:52:21;;;;;;;11.32;6.80;;;;;;;;;;5071789;28;20460;-73
2022/06/15 00:54:50;;;;;;;13.30;7.10;;;;;;;;;;5068930;28;20106;-73
2022/06/15 00:57:16;;;;;;;14.00;6.38;;;;;;;;;;5061408;28;20461;-73
2022/06/15 00:59:58;;;;;;;14.88;6.63;;;;;;;;;;5072674;28;20052;-73
2022/06/15 01:02:25;;;;;;;11.77;7.20;;;;;;;;;;5070593;28;20100;-73
2022/06/15 01:04:58;;;;;;;10.95;6.65;;;;;;;;;;5072341;28;20488;-73
2022/06/15 01:07:33;;;;;;;12.10;7.25;;;;;;;;;;5071763;28;20025;-73
2022/06/15 01:10:08;;;;;;;9.35;6.55;;;;;;;;;;5070140;28;20660;-74
2022/06/15 01:12:47;;;;;;;10.32;6.82;;;;;;;;;;5073402;28;20475;-73
2022/06/15 01:15:25;;;;;;;9.93;6.15;;;;;;;;;;5061079;28;20094;-73
2022/06/15 01:18:04;;;;;;;10.00;6.28;;;;;;;;;;5065656;28;20056;-74
2022/06/15 01:20:30;;;;;;;19.15;13.65;;;;;;;;;;5069069;28;20048;-75
2022/06/15 01:23:11;;;;;;;16.23;10.00;;;;;;;;;;5070630;28;20028;-76
2022/06/15 01:25:52;;;;;;;17.08;11.05;;;;;;;;;;5062686;28;20032;-76
2022/06/15 01:28:37;;;;;;;13.27;7.07;;;;;;;;;;5071039;28;20031;-74
2022/06/15 01:31:15;;;;;;;8.75;6.85;;;;;;;;;;5048603;28;20033;-74
2022/06/15 01:33:53;;;;;;;12.27;6.95;;;;;;;;;;5069449;28;20031;-73
2022/06/15 01:36:22;;;;;;;13.60;7.20;;;;;;;;;;5060434;28;20519;-73
2022/06/15 01:38:51;;;;;;;12.27;7.40;;;;;;;;;;5068203;28;20036;-73
2022/06/15 01:41:24;;;;;;;15.50;7.40;;;;;;;;;;5071183;28;20387;-73
2022/06/15 01:43:53;;;;;;;8.77;6.35;;;;;;;;;;5064601;28;20116;-73
2022/06/15 01:46:19;;;;;;;11.43;7.25;;;;;;;;;;5072840;28;20052;-73
2022/06/15 01:48:46;;;;;;;10.05;6.90;;;;;;;;;;5072187;28;20032;-73
2022/06/15 01:51:18;;;;;;;9.65;6.88;;;12.70;99.90;;;;;;5048030;28;20033;-73
2022/06/15 01:53:49;;;;;;;11.88;7.25;;;;;;;;;;5067885;28;20025;-73
2022/06/15 01:56:21;;;;;;;11.02;7.13;;;;;;;;;;5063464;28;20495;-72
2022/06/15 01:58:48;;;;;;;;;;;12.50;99.90;;;;;;5058847;28;20045;-73
2022/06/15 02:01:19;;;;;;;10.90;7.10;;;;;;;;;;5070574;28;19908;-73
2022/06/15 02:03:49;;;;;;;11.93;7.60;;;;;;;;;;5052760;28;20533;-73
2022/06/15 02:06:38;;;;;;;11.45;7.47;;;;;;;;;;5078929;28;20082;-73
2022/06/15 02:09:10;;;;;;;10.80;7.45;;;;;;;;;;5071944;28;20032;-73
2022/06/15 02:11:40;;;;;;;9.77;6.93;;;;;;;;;;5071910;28;20081;-73
2022/06/15 02:14:09;;;;;;;9.43;6.68;;;;;;;;;;5075530;28;20097;-73
2022/06/15 02:16:38;;;;;;;13.82;7.47;;;;;;;;;;5072365;28;20086;-73
2022/06/15 02:19:06;;;;;;;10.25;6.78;;;;;;;;;;5069471;28;20135;-73
2022/06/15 02:21:32;;;;;;;9.93;7.07;;;;;;;;;;5072404;28;20096;-73
2022/06/15 02:24:00;;;;;;;11.20;7.13;;;;;;;;;;5069684;28;20028;-72
2022/06/15 02:26:28;;;;;;;13.00;7.93;;;;;;;;;;5070862;28;20047;-72
2022/06/15 02:28:57;;;;;;;10.65;7.25;;;;;;;;;;5070916;28;20516;-72
2022/06/15 02:31:23;;;;;;;8.02;5.90;;;;;;;;;;5054078;28;20126;-73
2022/06/15 02:33:51;;;;;;;9.50;5.93;;;;;;;;;;5082967;28;20036;-72
2022/06/15 02:36:17;;;;;;;9.60;6.38;;;;;;;;;;5071123;28;20059;-72
2022/06/15 02:38:46;;;;;;;9.93;6.47;;;;;;;;;;5079325;28;20037;-72
2022/06/15 02:41:12;;;;;;;9.98;6.05;;;;;;;;;;5052789;28;20033;-72
2022/06/15 02:43:39;;;;;;;10.45;6.82;;;;;;;;;;5071323;28;20024;-72
2022/06/15 02:46:06;;;;;;;9.85;7.30;;;;;;;;;;5071082;28;20058;-72
2022/06/15 02:48:31;;;;;;;12.02;6.18;;;;;;;;;;5066500;28;20428;-72
2022/06/15 02:51:03;;;;;;;10.25;5.88;;;;;;;;;;5087174;28;20032;-72
2022/06/15 02:53:31;;;;;;;10.70;6.47;;;12.20;99.90;;;;;;5078627;28;20048;-73
2022/06/15 02:55:59;;;;;;;10.88;7.00;;;;;;;;;;5071998;28;20024;-72
2022/06/15 02:58:30;;;;;;;9.88;6.80;;;;;;;;;;5067998;28;20476;-72
2022/06/15 03:00:57;;;;;;;8.25;6.55;;;;;;;;;;5064859;28;20107;-72
2022/06/15 03:03:24;;;;;;;11.77;6.25;;;;;;;;;;5069481;28;20043;-73
2022/06/15 03:05:50;;;;;;;8.05;6.20;;;;;;;;;;5071202;28;20459;-72
2022/06/15 03:08:17;;;;;;;10.85;6.65;;;;;;;;;;5068862;28;20103;-73
2022/06/15 03:10:43;;;;;;;8.30;5.50;;;;;;;;;;5058678;28;20033;-73
2022/06/15 03:13:09;;;;;;;9.68;4.72;;;;;;;;;;5049917;28;20432;-73
2022/06/15 03:15:35;;;;;;;9.40;5.68;;;;;;;;;;5063755;28;20024;-72
2022/06/15 03:18:02;;;;;;;12.20;5.57;;;;;;;;;;5070940;28;20059;-73
2022/06/15 03:20:28;;;;;;;8.70;5.22;;;;;;;;;;5070463;28;20056;-73
2022/06/15 03:22:54;;;;;;;7.05;4.95;;;;;;;;;;5067110;28;20064;-73
2022/06/15 03:25:20;;;;;;;7.97;5.05;;;;;;;;;;5071446;28;20111;-73
2022/06/15 03:27:46;;;;;;;9.95;5.25;;;;;;;;;;5070182;28;20025;-73
2022/06/15 03:30:12;;;;;;;8.43;5.07;;;;;;;;;;5058152;28;20043;-73
2022/06/15 03:32:38;;;;;;;7.47;5.13;;;;;;;;;;5058443;28;20465;-72
2022/06/15 03:35:05;;;;;;;13.75;6.55;;;;;;;;;;5062852;28;20032;-73
2022/06/15 03:37:31;;;;;;;8.27;4.82;;;;;;;;;;5073217;28;20029;-72
2022/06/15 03:39:57;;;;;;;8.75;5.30;;;;;;;;;;5039149;28;20040;-72
2022/06/15 03:42:24;;;;;;;12.02;5.57;;;;;;;;;;5038501;28;20033;-72
2022/06/15 03:44:51;;;;;;;7.72;5.00;;;;;;;;;;5071442;28;20031;-72
2022/06/15 03:47:17;;;;;;;10.90;5.13;;;;;;;;;;5057001;28;20028;-73
2022/06/15 03:49:44;;;;;;;10.70;4.97;;;;;;;;;;5069455;28;20409;-72
2022/06/15 03:52:10;;;;;;;10.63;5.40;;;;;;;;;;5074855;28;20064;-73
2022/06/15 03:54:36;;;;;;;8.30;5.63;;;;;;;;;;5073189;28;20119;-72
2022/06/15 03:57:03;;;;;;;10.27;7.18;;;;;;;;;;5058756;28;20036;-72
2022/06/15 03:59:30;;;;;;;14.10;6.63;;;;;;;;;;5065435;28;20093;-72
2022/06/15 04:01:56;;;;;;;9.75;6.45;;;;;;;;;;5074892;28;20020;-73
2022/06/15 04:04:22;;;;;;;13.95;7.07;;;;;;;;;;5073997;28;20055;-72
2022/06/15 04:06:49;;;;;;;14.52;7.30;;;;;;;;;;5074239;28;20095;-73
2022/06/15 04:09:20;;;;;;;9.55;6.22;;;;;;;;;;5071933;28;20028;-73
2022/06/15 04:11:58;;;;;;;11.68;6.15;;;;;;;;;;5058986;28;20025;-72
2022/06/15 04:14:26;;;;;;;12.32;8.30;;;;;;;;;;5071679;28;20036;-72
2022/06/15 04:16:56;;;;;;;10.52;6.47;;;;;;;;;;5073603;28;20048;-72
2022/06/15 04:19:22;;;;;;;10.27;5.63;;;;;;;;;;5084126;28;20090;-72
2022/06/15 04:21:48;;;;;;;9.43;5.60;;;;;;;;;;5063964;28;20032;-72
2022/06/15 04:24:15;;;;;;;10.45;5.65;;;;;;;;;;5067107;28;20585;-72
2022/06/15 04:26:42;;;;;;;6.45;5.20;;;;;;;;;;5068250;28;20040;-72
2022/06/15 04:29:08;;;;;;;9.80;4.60;;;;;;;;;;5067242;28;20465;-72
2022/06/15 04:31:34;;;;;;;6.93;4.57;;;;;;;;;;5073536;28;20476;-72
2022/06/15 04:34:00;;;;;;;11.43;5.05;;;;;;;;;;5074544;28;20025;-72
2022/06/15 04:36:28;;;;;;;7.93;4.03;;;;;;;;;;5078831;28;20483;-73
2022/06/15 04:38:55;;;;;;;8.70;4.45;;;;;;;;;;5076882;28;20480;-73
2022/06/15 04:41:21;;;;;;;14.27;5.18;;;;;;;;;;5065406;28;20036;-72
2022/06/15 04:43:47;;;;;;;8.60;4.50;;;;;;;;;;5054853;28;20028;-73
2022/06/15 04:46:13;;;;;;;10.70;5.50;;;;;;;;;;5069442;28;20115;-71
2022/06/15 04:48:41;;;;;;;9.57;5.18;;;;;;;;;;5054915;28;20526;-71
2022/06/15 04:51:11;;;;;;;11.90;5.50;;;;;;;;;;5058277;28;20029;-73
2022/06/15 04:53:37;;;;;;;10.65;6.28;;;;;;;;;;5055579;28;20477;-73
2022/06/15 04:56:03;;;;;;;8.98;5.28;;;;;;;;;;5049359;28;20036;-72
2022/06/15 04:58:29;;;;;;;11.95;5.70;;;;;;;;;;5059599;28;20081;-72
2022/06/15 05:00:55;;;;;;;14.10;6.35;;;;;;;;;;5064691;28;20127;-73
2022/06/15 05:03:21;;;;;;;16.30;9.88;;;;;;;;;;5069571;28;20108;-78
2022/06/15 05:05:47;;;;;;;15.55;8.20;;;;;;;;;;5069512;28;20112;-77
2022/06/15 05:08:13;;;;;;;14.55;9.07;;;;;;;;;;5073774;28;20452;-77
2022/06/15 05:10:39;;;;;;;10.48;6.00;;;;;;;;;;5055596;28;20456;-78
2022/06/15 05:13:05;;;;;;;9.52;6.20;;;;;;;;;;5073502;28;20067;-75
2022/06/15 05:15:32;;;;;;;9.02;5.43;;;;;;;;;;5052533;28;20544;-72
2022/06/15 05:18:01;;;;;;;9.75;5.03;;;;;;;;;;5062934;28;20064;-72
2022/06/15 05:20:28;;;;;;;7.32;4.82;;;;;;;;;;5061141;28;20515;-72
2022/06/15 05:22:54;;;;;;;12.20;6.28;;;;;;;;;;5064023;28;20040;-72
2022/06/15 05:25:20;;;;;;;16.48;6.03;;;;;;;;;;5060949;28;20067;-71
2022/06/15 05:27:47;;;;;;;12.93;6.22;;;;;;;;;;5073007;28;20024;-72
2022/06/15 05:30:13;;;;;;;10.00;5.68;;;;;;;;;;5059752;28;20032;-71
2022/06/15 05:32:39;;;;;;;29.70;16.50;;;;;;;;;;5060013;28;20037;-73
2022/06/15 05:35:05;;;;;;;27.83;17.08;;;;;;;;;;5062894;28;20033;-72
2022/06/15 05:37:31;;;;;;;10.52;6.47;;;;;;;;;;5047100;28;20053;-72
2022/06/15 05:39:58;;;;;;;10.02;4.88;;;;;;;;;;5065735;28;20388;-74
2022/06/15 05:42:27;;;;;;;12.52;5.68;;;;;;;;;;5068364;28;20032;-74
2022/06/15 05:44:54;;;;;;;10.95;5.97;;;;;;;;;;5038977;28;20045;-71
2022/06/15 05:47:20;;;;;;;10.00;6.15;;;;;;;;;;5065809;28;20029;-74
2022/06/15 05:49:48;;;;;;;7.30;5.07;;;;;;;;;;5065524;28;20082;-73
2022/06/15 05:52:14;;;;;;;10.05;4.88;;;;;;;;;;5047020;28;20038;-72
2022/06/15 05:54:40;;;;;;;8.52;4.88;;;;;;;;;;5052008;28;20108;-71
2022/06/15 05:57:11;;;;;;;11.50;5.18;;;;;;;;;;5069694;28;20052;-72
2022/06/15 05:59:37;;;;;;;11.35;5.72;;;;;;;;;;5063862;28;20037;-71
2022/06/15 06:02:03;;;;;;;10.55;4.57;;;;;;;;;;5054506;28;20111;-71
2022/06/15 06:04:29;;;;;;;10.05;4.30;;;;;;;;;;5072594;28;20104;-72
2022/06/15 06:06:55;;;;;;;7.60;3.80;;;;;;;;;;5057195;28;20121;-72
2022/06/15 06:09:21;;;;;;;7.88;4.00;;;;;;;;;;5055675;28;20494;-72
2022/06/15 06:11:47;;;;;;;8.10;4.40;;;;;;;;;;5044240;28;20040;-72
2022/06/15 06:14:13;;;;;;;16.23;10.48;;;;;;;;;;5060051;28;20033;-72
2022/06/15 06:16:39;;;;;;;27.67;13.65;;;;;;;;;;5056257;28;20021;-71
2022/06/15 06:19:06;;;;;;;9.32;4.40;;;;;;;;;;5051858;28;20064;-72
2022/06/15 06:21:32;;;;;;;7.97;4.10;;;;;;;;;;5048930;28;20649;-73
2022/06/15 06:23:58;;;;;;;9.00;3.13;;;;;;;;;;5088666;28;20491;-73
2022/06/15 06:26:26;;;;;;;7.78;3.58;;;;;;;;;;5074637;28;20443;-73
2022/06/15 06:28:53;;;;;;;6.97;3.00;;;;;;;;;;5074273;28;20020;-73
2022/06/15 06:31:20;;;;;;;11.18;3.00;;;;;;;;;;5071300;28;20033;-72
2022/06/15 06:33:46;;;;;;;6.82;2.53;;;;;;;;;;5064522;28;20033;-72
2022/06/15 06:36:34;;;;;;;8.02;2.63;;;19.20;99.90;;;;;;5060136;28;20075;-79
2022/06/15 06:39:02;;;;;;;7.40;2.92;;;20.40;99.90;;;;;;5062834;28;20094;-77
2022/06/15 06:41:29;;;;;;;8.00;2.58;;;;;;;;;;5046218;28;20439;-77
2022/06/15 06:43:55;;;;;;;51.03;33.92;;;;;;;;;;5055726;28;20330;-77
2022/06/15 06:46:22;;;;;;;6.53;2.50;;;;;;;;;;5052743;28;20048;-77
2022/06/15 06:48:48;;;;;;;4.85;2.63;;;22.20;99.90;;;;;;5062259;28;20041;-75
2022/06/15 06:51:15;;;;;;;7.80;2.03;;;;;;;;;;5063561;28;20048;-76
2022/06/15 06:53:41;;;;;;;9.95;5.30;;;;;;;;;;5051527;28;20072;-76
2022/06/15 06:56:08;;;;;;;7.38;2.72;;;;;;;;;;5060109;28;20063;-76
2022/06/15 06:58:34;;;;;;;7.50;2.05;;;;;;;;;;5071424;28;20021;-76
2022/06/15 07:01:00;;;;;;;4.35;2.10;;;;;;;;;;5068247;28;20111;-76
2022/06/15 07:03:26;;;;;;;5.75;2.10;;;;;;;;;;5060420;28;20091;-76
2022/06/15 07:06:02;;;;;;;8.10;3.70;;;23.90;98.90;;;;;;5061066;28;20375;-78
2022/06/15 07:08:28;;;;;;;7.47;1.80;;;;;;;;;;5065718;28;20139;-79
2022/06/15 07:10:55;;;;;;;4.25;1.50;;;;;;;;;;5071026;28;20036;-79
2022/06/15 07:13:21;;;;;;;8.73;2.17;;;;;;;;;;5056459;28;20530;-79
2022/06/15 07:15:48;;;;;;;8.52;3.45;;;;;;;;;;5047880;28;20040;-78
2022/06/15 07:18:14;;;;;;;7.50;2.10;;;;;;;;;;5055212;28;20056;-76
2022/06/15 07:20:40;;;;;;;4.25;1.52;;;;;;;;;;5064979;28;20370;-75
2022/06/15 07:23:06;;;;;;;5.60;1.50;;;;;;;;;;5068986;28;20036;-75
2022/06/15 07:25:33;;;;;;;5.30;1.70;;;;;;;;;;5065410;28;20037;-75
2022/06/15 07:27:59;;;;;;;5.63;1.83;;;;;;;;;;5075642;28;20043;-75
2022/06/15 07:30:27;;;;;;;5.80;1.85;;;23.40;97.70;;;;;;5072662;28;20044;-75
2022/06/15 07:32:53;;;;;;;6.43;1.73;;;;;;;;;;5072840;28;20036;-75
2022/06/15 07:35:23;;;;;;;4.32;1.75;;;22.70;98.60;;;;;;5043917;28;20075;-75
2022/06/15 07:37:50;;;;;;;4.22;1.88;;;;;;;;;;5057810;28;20108;-75
2022/06/15 07:40:16;;;;;;;5.65;1.70;;;;;;;;;;5056213;28;20480;-75
2022/06/15 07:42:45;;;;;;;5.95;1.85;;;;;;;;;;5064217;28;20056;-75
2022/06/15 07:45:11;;;;;;;6.68;1.40;;;;;;;;;;5057436;28;20111;-75
2022/06/15 07:50:22;;;;;;;6.63;2.63;;;;;;;;;;5064584;28;20040;-75
2022/06/15 07:52:50;;;;;;;5.47;1.55;;;;;;;;;;5059688;28;20033;-75
2022/06/15 07:55:20;;;;;;;6.80;1.70;;;21.30;97.90;;;;;;5065930;28;20048;-75
2022/06/15 07:57:46;;;;;;;4.63;1.20;;;;;;;;;;5067030;28;20051;-75
2022/06/15 08:00:14;;;;;;;5.35;1.52;;;;;;;;;;5058319;28;20036;-75
2022/06/15 08:02:40;;;;;;;4.55;1.70;;;;;;;;;;5047758;28;20465;-75
2022/06/15 08:05:07;;;;;;;4.45;1.02;;;21.70;99.90;;;;;;5060795;28;20033;-75
2022/06/15 08:07:35;;;;;;;10.20;1.55;;;;;;;;;;5060970;28;20032;-75
2022/06/15 08:10:01;;;;;;;6.13;2.15;;;;;;;;;;5070664;28;20024;-75
2022/06/15 08:12:27;;;;;;;5.03;1.52;;;24.20;99.90;;;;;;5054625;28;20033;-75
2022/06/15 08:15:00;;;;;;;7.35;2.45;;;24.80;95.70;;;;;;5049798;28;20380;-75
2022/06/15 08:17:26;;;;;;;5.10;2.53;;;;;;;;;;5065881;28;20087;-75
2022/06/15 08:19:54;;;;;;;7.15;2.20;;;;;;;;;;5049099;28;20134;-75
2022/06/15 08:22:21;;;;;;;7.20;2.45;;;;;;;;;;5063937;28;20036;-75
2022/06/15 08:24:48;;;;;;;7.28;2.15;;;;;;;;;;5038561;28;20041;-75
2022/06/15 08:27:17;;;;;;;4.90;2.22;;;26.40;92.40;;;;;;5062979;28;20036;-75
2022/06/15 08:29:44;;;;;;;7.38;2.90;;;26.30;93.00;;;;;;5064055;28;20063;-75
2022/06/15 08:32:10;;;;;;;6.38;2.47;;;25.60;92.80;;;;;;5073088;28;20033;-75
2022/06/15 08:34:37;;;;;;;9.25;2.72;;;;;;;;;;5073856;28;20021;-75
2022/06/15 08:37:07;;;;;;;9.07;2.70;;;;;;;;;;5074435;28;20551;-75
2022/06/15 08:39:33;;;;;;;9.45;3.25;;;;;;;;;;5063863;28;20024;-75
2022/06/15 08:42:12;;;;;;;4.57;2.35;;;;;;;;;;5063519;28;20040;-74
2022/06/15 08:44:57;;;;;;;4.68;2.40;;;;;;;;;;5054354;28;20427;-74
2022/06/15 08:47:37;;;;;;;4.18;2.20;;;;;;;;;;5072206;28;20028;-74
2022/06/15 08:50:08;;;;;;;4.20;1.90;;;;;;;;;;5053644;28;20033;-75
2022/06/15 08:52:46;;;;;;;7.50;2.15;;;23.40;95.90;;;;;;5066926;28;20539;-75
2022/06/15 08:55:12;;;;;;;5.32;1.83;;;;;;;;;;5069766;28;20033;-75
2022/06/15 08:57:44;;;;;;;7.57;2.42;;;;;;;;;;5056191;28;20040;-75
2022/06/15 09:00:17;;;;;;;4.15;1.65;;;;;;;;;;5072331;28;20044;-75
2022/06/15 09:02:49;;;;;;;5.15;1.95;;;;;;;;;;5065383;28;20039;-75
2022/06/15 09:05:28;;;;;;;4.40;1.88;;;;;;;;;;5062279;28;20464;-75
2022/06/15 09:07:58;;;;;;;6.65;2.15;;;;;;;;;;5063617;28;20384;-74
2022/06/15 09:10:24;;;;;;;6.10;1.90;;;;;;;;;;5069631;28;20127;-75
2022/06/15 09:13:06;;;;;;;6.90;1.70;;;26.30;91.40;;;;;;5069559;28;20523;-75
2022/06/15 09:16:06;;;;;;;5.72;1.52;;;25.40;89.90;;;;;;5064392;28;20032;-75
2022/06/15 09:18:34;;;;;;;5.93;2.22;;;24.70;92.70;;;;;;5055711;28;20387;-75
2022/06/15 09:21:06;;;;;;;4.70;1.40;;;;;;;;;;5073566;28;20025;-74
2022/06/15 09:23:37;;;;;;;4.10;1.50;;;;;;;;;;5070197;28;20379;-75
2022/06/15 09:26:06;;;;;;;6.72;2.08;;;;;;;;;;5072831;28;20036;-74
2022/06/15 09:28:49;;;;;;;6.07;1.60;;;25.30;91.20;;;;;;5082504;28;20024;-75
2022/06/15 09:31:26;;;;;;;5.95;1.80;;;;;;;;;;5059253;28;20056;-74
2022/06/15 09:33:54;;;;;;;5.70;1.80;;;;;;;;;;5069029;28;20059;-74
2022/06/15 09:36:24;;;;;;;6.47;1.83;;;24.60;92.10;;;;;;5061401;28;20029;-74
2022/06/15 09:38:50;;;;;;;9.93;2.58;;;;;;;;;;5072786;28;20541;-75
2022/06/15 09:41:21;;;;;;;6.32;1.95;;;;;;;;;;5063714;28;20040;-74
2022/06/15 09:43:56;;;;;;;5.22;1.70;;;;;;;;;;5072205;28;20024;-74
2022/06/15 09:46:24;;;;;;;5.78;1.50;;;;;;;;;;5060455;28;20039;-74
2022/06/15 09:49:11;;;;;;;8.07;1.92;;;;;;;;;;5072394;28;20020;-74
2022/06/15 09:51:56;;;;;;;7.22;2.10;;;;;;;;;;5072761;28;20422;-74
2022/06/15 09:54:40;;;;;;;3.65;1.40;;;25.60;90.30;;;;;;5060908;28;20380;-74
2022/06/15 09:57:06;;;;;;;3.15;1.65;;;;;;;;;;5069728;28;20426;-74
2022/06/15 09:59:33;;;;;;;5.15;1.98;;;26.10;94.70;;;;;;5071589;28;20392;-74
2022/06/15 10:02:01;;;;;;;4.25;1.80;;;;;;;;;;5062681;28;20487;-74
2022/06/15 10:04:29;;;;;;;7.60;1.85;;;;;;;;;;5054755;28;20037;-75
2022/06/15 10:06:59;;;;;;;6.40;1.88;;;27.00;86.20;;;;;;5057466;28;20067;-74
2022/06/15 10:09:38;;;;;;;4.97;1.65;;;27.40;85.00;;;;;;5045902;28;20123;-73
2022/06/15 10:13:09;;;;;;;7.40;1.70;;;;;;;;;;5072145;28;20086;-74
2022/06/15 10:15:14;;;;;;;4.13;1.70;;;27.70;84.70;;;;;;5045526;28;20047;-74
2022/06/15 10:17:42;;;;;;;5.65;1.90;;;;;;;;;;5064387;28;20408;-74
2022/06/15 10:20:20;;;;;;;4.43;1.85;;;27.10;84.80;;;;;;5048040;28;20104;-74
2022/06/15 10:22:52;;;;;;;5.05;1.45;;;;;;;;;;5051407;28;20119;-74
2022/06/15 10:25:18;;;;;;;4.50;1.50;;;;;;;;;;5062699;28;20442;-74
2022/06/15 10:27:44;;;;;;;5.93;1.45;;;27.50;83.60;;;;;;5049206;28;20427;-74
2022/06/15 10:30:13;;;;;;;3.80;1.23;;;;;;;;;;5074936;28;20033;-74
2022/06/15 10:33:01;;;;;;;5.38;1.45;;;27.20;84.50;;;;;;5061892;28;20021;-76
2022/06/15 10:35:30;;;;;;;5.65;1.55;;;27.40;82.20;;;;;;5057888;28;20050;-75
2022/06/15 10:37:59;;;;;;;5.70;1.25;;;27.10;83.40;;;;;;5064749;28;20041;-75
2022/06/15 10:40:31;;;;;;;5.00;1.30;;;27.20;85.60;;;;;;5070860;28;20025;-75
2022/06/15 10:43:20;;;;;;;3.50;1.33;;;26.50;84.60;;;;;;5067076;28;20029;-75
2022/06/15 10:46:00;;;;;;;3.55;1.30;;;26.50;82.80;;;;;;5057634;28;20032;-75
2022/06/15 10:48:46;;;;;;;7.57;1.85;;;27.00;83.00;;;;;;5071887;28;20429;-75
2022/06/15 10:51:14;;;;;;;4.95;1.63;;;;;;;;;;5071296;28;20028;-76
2022/06/15 10:54:14;;;;;;;4.20;1.35;;;27.50;86.90;;;;;;5054201;28;20029;-75
2022/06/15 11:02:44;;;;;;;6.00;1.80;;;26.80;87.00;;;;;;5054989;28;20495;-74
2022/06/15 11:05:10;;;;;;;5.05;1.45;;;;;;;;;;5051502;28;20036;-74
2022/06/15 11:07:52;;;;;;;2.60;1.40;;;;;;;;;;5065912;28;20393;-74
2022/06/15 11:10:32;;;;;;;4.00;1.45;;;;;;;;;;5070969;28;20438;-74
2022/06/15 11:13:17;;;;;;;6.68;1.63;;;25.90;87.60;;;;;;5050772;28;20036;-74
2022/06/15 11:18:30;;;;;;;5.75;1.50;;;;;;;;;;5068353;28;20094;-74
2022/06/15 11:20:59;;;;;;;6.32;1.38;;;;;;;;;;5063637;28;20044;-74
2022/06/15 11:23:28;;;;;;;7.85;1.70;;;;;;;;;;5052357;28;20021;-74
2022/06/15 11:28:53;;;;;;;8.75;1.65;;;;;;;;;;5068640;28;20114;-74
2022/06/15 11:31:19;;;;;;;3.03;1.38;;;;;;;;;;5070804;28;20029;-74
2022/06/15 11:33:57;;;;;;;7.68;2.17;;;;;;;;;;5066620;28;20043;-73
2022/06/15 11:36:25;;;;;;;8.23;1.77;;;;;;;;;;5067986;28;20017;-73
2022/06/15 11:38:51;;;;;;;4.57;2.20;;;;;;;;;;5069358;28;20033;-73
2022/06/15 11:41:17;;;;;;;10.23;2.17;;;;;;;;;;5066917;28;20032;-74
2022/06/15 11:43:45;;;;;;;4.93;1.70;;;24.20;92.50;;;;;;5064883;28;20104;-74
2022/06/15 11:46:21;;;;;;;3.83;1.88;;;;;;;;;;5069628;28;20446;-74
2022/06/15 11:49:15;;;;;;;9.38;2.20;;;24.30;93.20;;;;;;5063319;28;20024;-74
2022/06/15 11:51:47;;;;;;;5.95;2.22;;;;;;;;;;5023510;28;20036;-73
2022/06/15 11:54:16;;;;;;;5.68;1.67;;;;;;;;;;5063884;28;20381;-75
2022/06/15 11:56:51;;;;;;;6.85;1.88;;;;;;;;;;5061954;28;20029;-74
2022/06/15 11:59:44;;;;;;;6.82;1.90;;;24.90;92.70;;;;;;5064181;28;20052;-74
2022/06/15 12:02:18;;;;;;;15.40;2.30;;;25.30;92.20;;;;;;5024446;28;20033;-73
2022/06/15 12:05:02;;;;;;;4.88;2.00;;;;;;;;;;5071105;28;20036;-74
2022/06/15 12:07:28;;;;;;;6.85;1.77;;;;;;;;;;5070270;28;20033;-75
2022/06/15 12:09:57;;;;;;;5.03;1.70;;;;;;;;;;5063720;28;20044;-75
2022/06/15 12:12:38;;;;;;;4.40;1.60;;;;;;;;;;5073072;28;20074;-75
2022/06/15 12:15:13;;;;;;;5.33;1.40;;;;;;;;;;5072299;28;20404;-74
2022/06/15 12:17:58;;;;;;;7.97;1.85;;;;;;;;;;5073928;28;20029;-75
2022/06/15 12:20:30;;;;;;;3.63;1.30;;;;;;;;;;5065013;28;20048;-75
2022/06/15 12:23:00;;;;;;;;;;;24.40;92.20;;;;;;5049654;28;20040;-74
2022/06/15 12:25:33;;;;;;;24.83;16.92;;;;;;;;;;5061990;28;19955;-77
2022/06/15 12:27:59;;;;;;;4.50;2.33;;;;;;;;;;5061921;28;20772;-75
2022/06/15 12:30:48;;;;;;;9.95;2.13;;;;;;;;;;5062696;28;20147;-75
2022/06/15 12:33:37;;;;;;;5.85;2.13;;;;;;;;;;5065050;28;20108;-73
2022/06/15 12:36:07;;;;;;;9.93;2.15;;;;;;;;;;5009977;28;20044;-75
2022/06/15 12:38:45;;;;;;;5.93;2.00;;;;;;;;;;5054558;28;20025;-76
2022/06/15 12:44:01;;;;;;;6.45;1.80;;;;;;;;;;5064536;28;20129;-72
2022/06/15 12:46:28;;;;;;;4.70;1.90;;;;;;;;;;5064469;28;20429;-71
2022/06/15 12:49:09;;;;;;;5.78;1.63;;;;;;;;;;5055259;28;20357;-73
2022/06/15 12:51:35;;;;;;;8.80;1.95;;;;;;;;;;5041010;28;20040;-71
2022/06/15 12:54:35;;;;;;;4.53;2.05;;;26.10;89.60;;;;;;5067528;28;20033;-71
2022/06/15 12:57:04;;;;;;;4.18;1.80;;;;;;;;;;5073546;28;20033;-71
2022/06/15 12:59:39;;;;;;;6.07;2.30;;;;;;;;;;5065126;28;20121;-71
2022/06/15 13:02:32;;;;;;;6.38;2.30;;;;;;;;;;5073364;28;20097;-71
2022/06/15 13:05:12;;;;;;;5.80;2.00;;;;;;;;;;5049061;28;20048;-71
2022/06/15 13:07:41;;;;;;;5.30;2.30;;;;;;;;;;5060033;28;20023;-72
2022/06/15 13:10:07;;;;;;;6.75;2.90;;;;;;;;;;5072243;28;20025;-72
2022/06/15 13:12:44;;;;;;;6.97;2.33;;;;;;;;;;5071945;28;20043;-72
2022/06/15 13:15:40;;;;;;;3.53;1.92;;;26.40;86.90;;;;;;5059266;28;20108;-72
2022/06/15 13:18:08;;;;;;;7.55;2.78;;;;;;;;;;5053301;28;20497;-72
2022/06/15 13:20:55;;;;;;;6.13;1.90;;;;;;;;;;5073388;28;20047;-72
2022/06/15 13:23:24;;;;;;;6.88;2.67;;;;;;;;;;5059128;28;20029;-72
2022/06/15 13:25:56;;;;;;;3.75;1.90;;;26.00;90.50;;;;;;5072674;28;20024;-72
2022/06/15 13:28:32;;;;;;;6.97;2.10;;;25.90;88.30;;;;;;5070050;28;20468;-72
2022/06/15 13:31:06;;;;;;;6.43;2.60;;;25.80;89.70;;;;;;5073146;28;20034;-71
2022/06/15 13:33:44;;;;;;;4.00;2.10;;;;;;;;;;5051839;28;20033;-72
2022/06/15 13:36:13;;;;;;;8.70;2.47;;;25.30;88.70;;;;;;5072406;28;20457;-72
2022/06/15 13:38:40;;;;;;;4.35;2.20;;;;;;;;;;5071796;28;20025;-72
2022/06/15 13:41:06;;;;;;;5.70;1.85;;;;;;;;;;5050017;28;20465;-72
2022/06/15 13:43:46;;;;;;;9.25;2.35;;;;;;;;;;5071846;28;20035;-71
2022/06/15 13:46:23;;;;;;;4.53;2.15;;;25.40;88.50;;;;;;5061921;28;20802;-70
2022/06/15 13:48:52;;;;;;;5.53;2.03;;;25.70;89.90;;;;;;5060647;28;20025;-71
2022/06/15 13:51:21;;;;;;;6.85;2.53;;;;;;;;;;5055898;28;20025;-69
2022/06/15 13:53:54;;;;;;;5.80;2.40;;;;;;;;;;5061061;28;20036;-70
2022/06/15 13:56:28;;;;;;;5.28;2.38;;;;;;;;;;5058485;28;20560;-71
2022/06/15 13:59:15;;;;;;;4.30;2.30;;;25.20;87.50;;;;;;5052516;28;20504;-71
2022/06/15 14:01:41;;;;;;;9.25;3.50;;;25.10;95.10;;;;;;5064607;28;20493;-72
2022/06/15 14:04:15;;;;;;;9.32;6.00;;;;;;;;;;5065464;28;20099;-72
2022/06/15 14:06:59;;;;;;;6.32;3.03;;;25.50;87.60;;;;;;5060026;28;20028;-72
2022/06/15 14:09:45;;;;;;;6.03;2.30;;;;;;;;;;5061147;28;20040;-72
2022/06/15 14:12:29;;;;;;;4.90;2.58;;;25.80;87.10;;;;;;5029193;28;20036;-80
2022/06/15 14:15:10;;;;;;;4.90;2.08;;;;;;;;;;5069513;28;20032;-76
2022/06/15 14:17:53;;;;;;;4.68;1.77;;;26.10;90.50;;;;;;5070326;28;20029;-79
2022/06/15 14:20:29;;;;;;;5.32;2.40;;;;;;;;;;5061158;28;20052;-76
2022/06/15 14:22:56;;;;;;;4.85;1.77;;;;;;;;;;5066860;28;20029;-77
2022/06/15 14:25:22;;;;;;;6.57;2.47;;;;;;;;;;5069033;28;20028;-75
2022/06/15 14:27:53;;;;;;;6.32;2.13;;;;;;;;;;5053312;28;20427;-73
2022/06/15 14:30:32;;;;;;;5.20;1.95;;;25.30;91.00;;;;;;5065029;28;20039;-72
2022/06/15 14:33:18;;;;;;;5.88;1.85;;;25.40;90.90;;;;;;5057394;28;20028;-69
2022/06/15 14:35:44;;;;;;;7.85;2.25;;;;;;;;;;5058644;28;20396;-71
2022/06/15 14:38:24;;;;;;;5.32;2.20;;;;;;;;;;5062667;28;20029;-70
2022/06/15 14:40:51;;;;;;;5.47;2.10;;;;;;;;;;5066694;28;20032;-74
2022/06/15 14:43:21;;;;;;;4.13;1.67;;;25.20;90.20;;;;;;5066385;28;20430;-74
2022/06/15 14:45:49;;;;;;;9.40;4.55;;;;;;;;;;5043235;28;20115;-76
2022/06/15 14:48:25;;;;;;;5.72;2.55;;;;;;;;;;5050200;28;20036;-76
2022/06/15 14:51:08;;;;;;;5.55;2.80;;;;;;;;;;5056004;28;20296;-76
2022/06/15 14:53:37;;;;;;;4.68;1.58;;;25.50;90.40;;;;;;5057381;28;20030;-74